Decoded Metar for LYBE (BEOGRAD in SERBIA) (IATA:BEG) | Meteo·Mobile Aviation Weather
aviador You're here:

LYBE Decoded Metar

BEOGRAD in SERBIA
Report Time2019-07-15 23:30:00
UTC Time2019-07-15 23:56:38
Flight Rules vfr VFR
WindVRB at 01 kt
Visibility9999 m
Phenomena:N/A
Clouds:N/A
Expected CloudBase > 1,600 ft AGL from Temp-Dew spread
CeilingNone
Temp16°C (ISA +2)
Dew Point12°C (77% RH)
QNH1012 hPa
Density Alt741 ft
Elevation325 ft
Report Wrong Elevation
Raw Report
LYBE 152330Z VRB01KT CAVOK 16/12 Q1012 NOSIG=

Extra information for LYBE:More info

Metar Taf Metar & Taf Last 4 Metars F.Rules Stats Wind Profile Meteogram Temp Stats Airport Information Weather charts Add Link Nearby VenuesMetar ALERT Operation Metar Decoded Social comments